Terminal Aerodrome Forecast
Issued by NWS

Home | Current Version | Previous Version | Text Only | Print | Product List | Glossary On
Versions: 1 2 3 4 5 6 7 8 9 10 11 12 13 14 15 16 17 18 19 20 21 22 23 24 25
000
FTUS41 KPHI 270907 AAA
TAFMIV
TAF AMD
KMIV 270907Z 2709/2806 33008G16KT P6SM BKN012 OVC060
      TEMPO 2709/2712 4SM -RA BR SCT012 OVC060
     FM271200 34008KT P6SM -RA SCT020 BKN060
      TEMPO 2712/2714 4SM -RA BR OVC020
     FM271400 33008G16KT P6SM -SHRA OVC035
     FM271800 33008G16KT P6SM BKN045
     FM280000 34006KT P6SM SCT045 BKN100=

USA.gov is the U.S. government's official web portal to all federal, state and local government web resources and services.